Time;durP1;ratioP1;P1;durP2;ratioP2;P2;SDS_P1;SDS_P2;PMS_P1;PMS_P2;Temp;Humidity;BMP_temperature;BMP_pressure;BME280_temperature;BME280_humidity;BME280_pressure;Samples;Min_cycle;Max_cycle;Signal;HPM_P1;HPM_P2
2023/12/09 00:01:18;;;;;;;;;;;;;;;4.37;100.00;96284.59;5083488;28;19950;-71
2023/12/09 00:03:44;;;;;;;;;;;;;;;4.36;100.00;96283.78;5083502;28;19955;-71
2023/12/09 00:06:10;;;;;;;;;;;;;;;4.34;100.00;96293.53;5083590;28;19958;-70
2023/12/09 00:08:36;;;;;;;;;;;;;;;4.33;100.00;96298.94;5083123;28;19983;-70
2023/12/09 00:11:02;;;;;;;;;;;;;;;4.32;100.00;96302.50;5083105;28;19965;-71
2023/12/09 00:13:27;;;;;;;;;;;;;;;4.31;100.00;96298.31;5082581;28;19985;-70
2023/12/09 00:15:53;;;;;;;;;;;;;;;4.27;100.00;96295.28;5081825;28;19963;-71
2023/12/09 00:18:19;;;;;;;;;;;;;;;4.24;100.00;96301.63;5084092;28;19963;-72
2023/12/09 00:20:45;;;;;;;;;;;;;;;4.20;100.00;96310.78;5085710;28;19964;-70
2023/12/09 00:23:11;;;;;;;;;;;;;;;4.16;100.00;96306.09;5069047;28;19985;-69
2023/12/09 00:25:37;;;;;;;;;;;;;;;4.14;100.00;96308.88;5087013;28;19962;-69
2023/12/09 00:28:03;;;;;;;;;;;;;;;4.13;100.00;96306.47;5086452;28;20274;-70
2023/12/09 00:30:29;;;;;;;;;;;;;;;4.13;100.00;96309.06;5086913;28;20030;-70
2023/12/09 00:32:55;;;;;;;;;;;;;;;4.12;100.00;96303.06;5086659;28;19954;-69
2023/12/09 00:35:21;;;;;;;;;;;;;;;4.13;100.00;96304.66;5085873;28;20030;-69
2023/12/09 00:37:47;;;;;;;;;;;;;;;4.15;100.00;96301.91;5086764;28;19956;-73
2023/12/09 00:40:13;;;;;;;;;;;;;;;4.14;100.00;96295.13;5085116;28;20247;-74
2023/12/09 00:42:38;;;;;;;;;;;;;;;4.14;100.00;96289.94;5086448;28;19994;-75
2023/12/09 00:45:05;;;;;;;;;;;;;;;4.13;100.00;96294.28;5086519;28;19963;-74
2023/12/09 00:47:31;;;;;;;;;;;;;;;4.12;100.00;96300.47;5084904;28;19959;-75
2023/12/09 00:49:56;;;;;;;;;;;;;;;4.11;100.00;96292.88;5085045;28;19974;-75
2023/12/09 00:52:22;;;;;;;;;;;;;;;4.10;100.00;96286.88;5086682;28;19961;-75
2023/12/09 00:54:48;;;;;;;;;;;;;;;4.11;100.00;96296.25;5085017;28;19990;-70
2023/12/09 00:57:14;;;;;;;;;;;;;;;4.11;100.00;96298.84;5084882;28;19960;-71
2023/12/09 00:59:40;;;;;;;;;;;;;;;4.11;100.00;96298.84;5084862;28;19969;-71
2023/12/09 01:02:06;;;;;;;;;;;;;;;4.11;100.00;96301.44;5085892;28;19940;-71
2023/12/09 01:04:32;;;;;;;;;;;;;;;4.12;100.00;96305.66;5086002;28;20118;-71
2023/12/09 01:06:57;;;;;;;;;;;;;;;4.13;100.00;96311.66;5086697;28;20116;-70
2023/12/09 01:09:23;;;;;;;;;;;;;;;4.13;100.00;96306.47;5085298;28;20031;-71
2023/12/09 01:11:49;;;;;;;;;;;;;;;4.14;100.00;96311.50;5085949;28;20149;-70
2023/12/09 01:14:15;;;;;;;;;;;;;;;4.16;100.00;96332.03;5085946;28;19964;-73
2023/12/09 01:16:41;;;;;;;;;;;;;;;4.14;100.00;96331.44;5084555;28;19963;-69
2023/12/09 01:19:07;;;;;;;;;;;;;;;4.15;100.00;96339.03;5085895;28;20155;-69
2023/12/09 01:21:33;;;;;;;;;;;;;;;4.15;100.00;96343.44;5085895;28;19954;-69
2023/12/09 01:23:58;;;;;;;;;;;;;;;4.16;100.00;96343.25;5084533;28;20307;-69
2023/12/09 01:26:24;;;;;;;;;;;;;;;4.16;100.00;96345.03;5085926;28;20234;-70
2023/12/09 01:28:50;;;;;;;;;;;;;;;4.16;100.00;96340.66;5085884;28;20143;-70
2023/12/09 01:31:16;;;;;;;;;;;;;;;4.16;100.00;96340.66;5084885;28;20173;-72
2023/12/09 01:33:42;;;;;;;;;;;;;;;4.15;100.00;96333.03;5084767;28;19947;-74
2023/12/09 01:36:08;;;;;;;;;;;;;;;4.14;100.00;96342.63;5067767;28;19960;-72
2023/12/09 01:38:34;;;;;;;;;;;;;;;4.16;100.00;96348.44;5084510;28;19961;-71
2023/12/09 01:41:00;;;;;;;;;;;;;;;4.16;100.00;96365.78;5085878;28;19970;-71
2023/12/09 01:43:26;;;;;;;;;;;;;;;4.15;100.00;96352.00;5085270;28;20012;-72
2023/12/09 01:45:53;;;;;;;;;;;;;;;4.16;100.00;96360.59;5085166;28;20024;-72
2023/12/09 01:48:20;;;;;;;;;;;;;;;4.16;100.00;96350.22;5083705;28;20016;-72
2023/12/09 01:50:46;;;;;;;;;;;;;;;4.15;100.00;96351.22;5083736;28;19969;-71
2023/12/09 01:53:12;;;;;;;;;;;;;;;4.14;100.00;96365.19;5085524;28;20133;-72
2023/12/09 01:55:39;;;;;;;;;;;;;;;4.12;100.00;96373.16;5083732;28;19958;-72
2023/12/09 01:58:05;;;;;;;;;;;;;;;4.14;100.00;96370.38;5085477;28;19958;-73
2023/12/09 02:00:30;;;;;;;;;;;;;;;4.15;100.00;96375.38;5085188;28;19991;-73
2023/12/09 02:02:56;;;;;;;;;;;;;;;4.15;100.00;96382.34;5085398;28;20134;-73
2023/12/09 02:05:22;;;;;;;;;;;;;;;4.16;100.00;96384.78;5085154;28;19960;-73
2023/12/09 02:07:48;;;;;;;;;;;;;;;4.17;100.00;96377.78;5084814;28;19958;-69
2023/12/09 02:10:16;;;;;;;;;;;;;;;4.17;100.00;96370.00;5083926;28;19965;-72
2023/12/09 02:12:45;;;;;;;;;;;;;;;4.16;100.00;96376.16;5084674;28;19960;-70
2023/12/09 02:15:15;;;;;;;;;;;;;;;4.16;100.00;96377.00;5084752;28;19957;-71
2023/12/09 02:17:45;;;;;;;;;;;;;;;4.27;100.00;96360.97;5084705;28;20102;-70
2023/12/09 02:20:12;;;;;;;;;;;;;;;4.36;100.00;96356.47;5084893;28;20161;-71
2023/12/09 02:22:38;;;;;;;;;;;;;;;4.39;100.00;96363.91;5084804;28;19957;-71
2023/12/09 02:25:04;;;;;;;;;;;;;;;4.37;100.00;96372.88;5084758;28;20028;-70
2023/12/09 02:27:52;;;;;;;;;;;;;;;4.35;100.00;96372.25;5084711;28;20134;-72
2023/12/09 02:30:26;;;;;;;;;;;;;;;4.32;100.00;96350.03;5084663;28;19981;-70
2023/12/09 02:32:53;;;;;;;;;;;;;;;4.30;100.00;96352.00;5083013;28;19966;-69
2023/12/09 02:35:19;;;;;;;;;;;;;;;4.29;100.00;96347.00;5084535;28;20035;-70
2023/12/09 02:37:46;;;;;;;;;;;;;;;4.27;100.00;96345.38;5084438;28;19957;-69
2023/12/09 02:40:13;;;;;;;;;;;;;;;4.25;100.00;96352.53;5083065;28;19958;-70
2023/12/09 02:42:39;;;;;;;;;;;;;;;4.24;100.00;96344.94;5083087;28;19957;-69
2023/12/09 02:45:06;;;;;;;;;;;;;;;4.24;100.00;96343.16;5082871;28;19967;-72
2023/12/09 02:47:32;;;;;;;;;;;;;;;4.23;100.00;96338.94;5082870;28;19979;-74
2023/12/09 02:49:57;;;;;;;;;;;;;;;4.25;100.00;96341.38;5084289;28;20132;-73
2023/12/09 02:52:23;;;;;;;;;;;;;;;4.24;100.00;96321.56;5082955;28;19964;-73
2023/12/09 02:54:49;;;;;;;;;;;;;;;4.23;100.00;96317.38;5083171;28;19962;-73
2023/12/09 02:57:16;;;;;;;;;;;;;;;4.23;100.00;96314.78;5084426;28;20133;-74
2023/12/09 02:59:41;;;;;;;;;;;;;;;4.20;100.00;96322.91;5084083;28;20141;-73
2023/12/09 03:02:07;;;;;;;;;;;;;;;4.18;100.00;96317.94;5084010;28;20031;-73
2023/12/09 03:04:33;;;;;;;;;;;;;;;4.17;100.00;96313.72;5082678;28;19981;-73
2023/12/09 03:06:59;;;;;;;;;;;;;;;4.14;100.00;96308.88;5082659;28;19954;-75
2023/12/09 03:09:25;;;;;;;;;;;;;;;4.13;100.00;96301.28;5082248;28;19998;-75
2023/12/09 03:11:51;;;;;;;;;;;;;;;4.12;100.00;96307.47;5083088;28;19964;-74
2023/12/09 03:14:17;;;;;;;;;;;;;;;4.12;100.00;96307.47;5082347;28;19974;-75
2023/12/09 03:16:42;;;;;;;;;;;;;;;4.11;100.00;96300.66;5083673;28;19957;-74
2023/12/09 03:19:08;;;;;;;;;;;;;;;4.08;100.00;96296.63;5083804;28;19963;-75
2023/12/09 03:21:34;;;;;;;;;;;;;;;4.07;100.00;96292.41;5083112;28;20015;-71
2023/12/09 03:24:00;;;;;;;;;;;;;;;4.07;100.00;96298.44;5082892;28;19949;-76
2023/12/09 03:26:26;;;;;;;;;;;;;;;4.09;100.00;96303.41;5083831;28;19969;-71
2023/12/09 03:28:51;;;;;;;;;;;;;;;4.07;100.00;96306.22;5083761;28;19988;-71
2023/12/09 03:31:18;;;;;;;;;;;;;;;4.07;100.00;96301.03;5083828;28;19960;-72
2023/12/09 03:33:43;;;;;;;;;;;;;;;4.02;100.00;96290.38;5082642;28;19957;-71
2023/12/09 03:36:11;;;;;;;;;;;;;;;4.01;100.00;96291.38;5084035;28;19967;-71
2023/12/09 03:38:37;;;;;;;;;;;;;;;4.01;100.00;96281.00;5083517;28;19974;-71
2023/12/09 03:41:04;;;;;;;;;;;;;;;4.00;100.00;96276.75;5083593;28;19970;-71
2023/12/09 03:43:31;;;;;;;;;;;;;;;4.00;100.00;96273.38;5082299;28;19957;-73
2023/12/09 03:45:58;;;;;;;;;;;;;;;3.98;100.00;96281.34;5082027;28;19963;-73
2023/12/09 03:48:24;;;;;;;;;;;;;;;3.98;100.00;96283.94;5065043;28;20240;-73
2023/12/09 03:50:50;;;;;;;;;;;;;;;3.97;100.00;96281.50;5082190;28;19983;-72
2023/12/09 03:53:16;;;;;;;;;;;;;;;3.95;100.00;96278.28;5083824;28;20212;-73
2023/12/09 03:55:41;;;;;;;;;;;;;;;3.95;100.00;96281.72;5087319;28;19952;-72
2023/12/09 03:58:08;;;;;;;;;;;;;;;3.93;100.00;96286.28;5087258;28;20018;-71
2023/12/09 04:00:35;;;;;;;;;;;;;;;3.92;100.00;96292.44;5087259;28;19970;-70
2023/12/09 04:03:01;;;;;;;;;;;;;;;3.90;100.00;96288.41;5087273;28;19954;-72
2023/12/09 04:05:26;;;;;;;;;;;;;;;3.90;100.00;96288.41;5087247;28;20027;-73
2023/12/09 04:07:52;;;;;;;;;;;;;;;3.89;100.00;96284.22;5087277;28;20047;-72
2023/12/09 04:10:18;;;;;;;;;;;;;;;3.87;100.00;96287.00;5085714;28;19996;-73
2023/12/09 04:12:44;;;;;;;;;;;;;;;3.85;100.00;96294.13;5087189;28;20020;-73
2023/12/09 04:15:11;;;;;;;;;;;;;;;3.83;100.00;96296.91;5087109;28;19958;-72
2023/12/09 04:17:37;;;;;;;;;;;;;;;3.80;100.00;96299.88;5087698;28;19961;-71
2023/12/09 04:20:07;;;;;;;;;;;;;;;3.80;100.00;96297.28;5086367;28;20026;-72
2023/12/09 04:22:33;;;;;;;;;;;;;;;3.77;100.00;96291.63;5087185;28;19972;-73
2023/12/09 04:24:59;;;;;;;;;;;;;;;3.70;100.00;96288.16;5086682;28;20139;-72
2023/12/09 04:27:25;;;;;;;;;;;;;;;3.64;100.00;96294.84;5086637;28;19960;-72
2023/12/09 04:29:51;;;;;;;;;;;;;;;3.62;100.00;96315.75;5086415;28;19964;-71
2023/12/09 04:32:16;;;;;;;;;;;;;;;3.59;100.00;96312.72;5085447;28;19965;-72
2023/12/09 04:34:42;;;;;;;;;;;;;;;3.59;100.00;96313.53;5086707;28;19964;-71
2023/12/09 04:37:08;;;;;;;;;;;;;;;3.60;100.00;96309.16;5086464;28;19959;-75
2023/12/09 04:39:34;;;;;;;;;;;;;;;3.61;100.00;96318.53;5086564;28;19961;-73
2023/12/09 04:42:00;;;;;;;;;;;;;;;3.61;100.00;96302.97;5086456;28;19963;-72
2023/12/09 04:44:26;;;;;;;;;;;;;;;3.62;100.00;96312.38;5084975;28;19964;-73
2023/12/09 04:46:52;;;;;;;;;;;;;;;3.62;100.00;96305.38;5086924;28;19965;-71
2023/12/09 04:49:18;;;;;;;;;;;;;;;3.63;100.00;96308.78;5086258;28;19968;-72
2023/12/09 04:51:44;;;;;;;;;;;;;;;3.63;100.00;96301.00;5086365;28;19956;-72
2023/12/09 04:54:10;;;;;;;;;;;;;;;3.63;100.00;96314.78;5085970;28;19958;-73
2023/12/09 04:56:35;;;;;;;;;;;;;;;3.63;100.00;96307.00;5086497;28;19956;-73
2023/12/09 04:59:02;;;;;;;;;;;;;;;3.64;100.00;96306.03;5085283;28;19963;-70
2023/12/09 05:01:28;;;;;;;;;;;;;;;3.64;100.00;96313.78;5086303;28;19963;-70
2023/12/09 05:03:54;;;;;;;;;;;;;;;3.64;100.00;96305.22;5086232;28;19959;-71
2023/12/09 05:06:20;;;;;;;;;;;;;;;3.65;100.00;96309.41;5084879;28;20015;-70
2023/12/09 05:08:46;;;;;;;;;;;;;;;3.63;100.00;96317.38;5084679;28;19998;-71
2023/12/09 05:11:12;;;;;;;;;;;;;;;3.62;100.00;96307.97;5086151;28;19953;-70
2023/12/09 05:13:37;;;;;;;;;;;;;;;3.58;100.00;96311.91;5084880;28;19961;-72
2023/12/09 05:16:03;;;;;;;;;;;;;;;3.57;100.00;96309.50;5085714;28;20034;-73
2023/12/09 05:18:30;;;;;;;;;;;;;;;3.53;100.00;96303.03;5085939;28;19961;-74
2023/12/09 05:20:55;;;;;;;;;;;;;;;3.50;100.00;96290.44;5085985;28;19944;-73
2023/12/09 05:23:21;;;;;;;;;;;;;;;3.49;100.00;96297.44;5084714;28;19990;-73
2023/12/09 05:25:49;;;;;;;;;;;;;;;3.49;100.00;96283.66;5085452;28;20254;-73
2023/12/09 05:28:15;;;;;;;;;;;;;;;3.48;100.00;96288.03;5085834;28;19959;-74
2023/12/09 05:30:41;;;;;;;;;;;;;;;3.50;100.00;96287.84;5067442;28;19977;-71
2023/12/09 05:33:07;;;;;;;;;;;;;;;3.50;100.00;96277.47;5084417;28;19962;-73
2023/12/09 05:35:33;;;;;;;;;;;;;;;3.49;100.00;96281.06;5083975;28;20058;-71
2023/12/09 05:37:59;;;;;;;;;;;;;;;3.46;100.00;96277.03;5085393;28;20122;-72
2023/12/09 05:40:25;;;;;;;;;;;;;;;3.48;100.00;96276.84;5085401;28;20000;-72
2023/12/09 05:42:51;;;;;;;;;;;;;;;3.44;100.00;96266.84;5085694;28;20242;-72
2023/12/09 05:45:16;;;;;;;;;;;;;;;3.43;100.00;96267.81;5085457;28;19959;-73
2023/12/09 05:47:43;;;;;;;;;;;;;;;3.40;100.00;96267.34;5085393;28;19974;-72
2023/12/09 05:50:09;;;;;;;;;;;;;;;3.35;100.00;96278.25;5085262;28;19966;-69
2023/12/09 05:52:35;;;;;;;;;;;;;;;3.33;100.00;96272.44;5084234;28;20269;-79
2023/12/09 05:55:01;;;;;;;;;;;;;;;3.31;100.00;96263.25;5085577;28;19958;-79
2023/12/09 05:57:27;;;;;;;;;;;;;;;3.26;100.00;96263.78;5085396;28;19961;-79
2023/12/09 05:59:53;;;;;;;;;;;;;;;3.24;100.00;96273.50;5085151;28;20249;-78
2023/12/09 06:02:19;;;;;;;;;;;;;;;3.21;100.00;96266.91;5085169;28;20220;-74
2023/12/09 06:04:44;;;;;;;;;;;;;;;3.19;100.00;96268.88;5084652;28;19961;-75
2023/12/09 06:07:10;;;;;;;;;;;;;;;3.17;100.00;96270.81;5085233;28;19960;-73
2023/12/09 06:09:36;;;;;;;;;;;;;;;3.17;100.00;96265.66;5083709;28;19968;-70
2023/12/09 06:12:02;;;;;;;;;;;;;;;3.17;100.00;96264.81;5085423;28;19961;-72
2023/12/09 06:14:28;;;;;;;;;;;;;;;3.16;100.00;96258.84;5084027;28;19975;-72
2023/12/09 06:16:54;;;;;;;;;;;;;;;3.15;100.00;96259.84;5085046;28;19961;-72
2023/12/09 06:19:19;;;;;;;;;;;;;;;3.21;100.00;96263.50;5085286;28;20148;-71
2023/12/09 06:21:46;;;;;;;;;;;;;;;3.57;100.00;96258.47;5085446;28;19991;-71
2023/12/09 06:24:13;;;;;;;;;;;;;;;3.78;100.00;96262.09;5085144;28;19958;-71
2023/12/09 06:26:43;;;;;;;;;;;;;;;3.74;100.00;96255.66;5085172;28;20139;-71
2023/12/09 06:29:09;;;;;;;;;;;;;;;3.68;100.00;96249.44;5083436;28;19967;-72
2023/12/09 06:31:34;;;;;;;;;;;;;;;3.61;100.00;96248.50;5084884;28;20016;-72
2023/12/09 06:34:00;;;;;;;;;;;;;;;3.54;100.00;96248.44;5084339;28;20024;-72
2023/12/09 06:36:26;;;;;;;;;;;;;;;3.54;100.00;96245.84;5084438;28;19967;-72
2023/12/09 06:38:52;;;;;;;;;;;;;;;3.50;100.00;96247.16;5084509;28;20304;-72
2023/12/09 06:41:18;;;;;;;;;;;;;;;3.45;100.00;96234.75;5084684;28;20171;-72
2023/12/09 06:43:44;;;;;;;;;;;;;;;3.45;100.00;96232.16;5084001;28;20245;-71
2023/12/09 06:46:10;;;;;;;;;;;;;;;3.44;100.00;96227.13;5084567;28;19985;-72
2023/12/09 06:48:37;;;;;;;;;;;;;;;3.43;100.00;96226.34;5084263;28;20004;-72
2023/12/09 06:51:03;;;;;;;;;;;;;;;3.45;100.00;96229.56;5084071;28;19942;-72
2023/12/09 06:53:28;;;;;;;;;;;;;;;3.45;100.00;96226.97;5084038;28;19961;-72
2023/12/09 06:55:56;;;;;;;;;;;;;;;3.43;100.00;96249.69;5083400;28;20194;-72
2023/12/09 06:58:22;;;;;;;;;;;;;;;3.44;100.00;96253.06;5083042;28;19962;-72
2023/12/09 07:00:48;;;;;;;;;;;;;;;3.44;100.00;96243.53;5083884;28;19967;-72
2023/12/09 07:03:14;;;;;;;;;;;;;;;3.42;100.00;96252.44;5082699;28;20161;-73
2023/12/09 07:05:40;;;;;;;;;;;;;;;3.44;100.00;96242.69;5084011;28;20021;-75
2023/12/09 07:08:08;;;;;;;;;;;;;;;3.42;100.00;96227.34;5084130;28;19965;-73
2023/12/09 07:10:33;;;;;;;;;;;;;;;3.40;100.00;96234.50;5082505;28;20280;-73
2023/12/09 07:12:59;;;;;;;;;;;;;;;3.38;100.00;96246.81;5082541;28;19963;-71
2023/12/09 07:15:26;;;;;;;;;;;;;;;3.37;100.00;96245.19;5084200;28;19958;-72
2023/12/09 07:17:52;;;;;;;;;;;;;;;3.36;100.00;96246.19;5084081;28;19961;-72
2023/12/09 07:20:17;;;;;;;;;;;;;;;3.35;100.00;96246.38;5083785;28;19942;-73
2023/12/09 07:22:44;;;;;;;;;;;;;;;3.34;100.00;96253.34;5083429;28;20002;-69
2023/12/09 07:25:10;;;;;;;;;;;;;;;3.36;100.00;96243.59;5083851;28;19963;-69
2023/12/09 07:27:36;;;;;;;;;;;;;;;3.35;100.00;96244.56;5081826;28;20101;-71
2023/12/09 07:30:02;;;;;;;;;;;;;;;3.32;100.00;96239.75;5083484;28;19963;-71
2023/12/09 07:32:28;;;;;;;;;;;;;;;3.33;100.00;96225.81;5083593;28;19961;-69
2023/12/09 07:34:54;;;;;;;;;;;;;;;3.38;100.00;96230.44;5083630;28;20283;-69
2023/12/09 07:37:20;;;;;;;;;;;;;;;3.40;100.00;96233.66;5083835;28;19976;-69
2023/12/09 07:39:46;;;;;;;;;;;;;;;3.38;100.00;96233.88;5083960;28;19961;-75
2023/12/09 07:42:13;;;;;;;;;;;;;;;3.38;100.00;96243.41;5082099;28;19952;-71
2023/12/09 07:44:38;;;;;;;;;;;;;;;3.38;100.00;96231.28;5083770;28;19960;-70
2023/12/09 07:47:04;;;;;;;;;;;;;;;3.41;100.00;96235.28;5082244;28;19953;-70
2023/12/09 07:49:30;;;;;;;;;;;;;;;3.45;100.00;96228.75;5081779;28;20051;-69
2023/12/09 07:51:56;;;;;;;;;;;;;;;3.48;100.00;96237.97;5083615;28;19969;-69
2023/12/09 07:54:22;;;;;;;;;;;;;;;3.51;100.00;96237.59;5083488;28;20015;-70
2023/12/09 07:56:48;;;;;;;;;;;;;;;3.53;100.00;96227.84;5081753;28;20005;-69
2023/12/09 07:59:14;;;;;;;;;;;;;;;3.51;100.00;96233.25;5083184;28;20165;-72
2023/12/09 08:01:40;;;;;;;;;;;;;;;3.54;100.00;96237.25;5083311;28;20226;-75
2023/12/09 08:04:06;;;;;;;;;;;;;;;3.52;100.00;96224.47;5083317;28;19957;-75
2023/12/09 08:06:32;;;;;;;;;;;;;;;3.48;100.00;96220.63;5082210;28;20027;-75
2023/12/09 08:08:58;;;;;;;;;;;;;;;3.47;100.00;96211.25;5083311;28;20146;-75
2023/12/09 08:11:24;;;;;;;;;;;;;;;3.52;100.00;96221.06;5083519;28;19968;-76
2023/12/09 08:13:50;;;;;;;;;;;;;;;3.50;100.00;96218.66;5083467;28;19958;-75
2023/12/09 08:16:15;;;;;;;;;;;;;;;3.49;100.00;96221.44;5084088;28;19953;-68
2023/12/09 08:18:42;;;;;;;;;;;;;;;3.51;100.00;96224.63;5083456;28;19959;-72
2023/12/09 08:21:09;;;;;;;;;;;;;;;3.49;100.00;96213.66;5082219;28;19964;-71
2023/12/09 08:23:35;;;;;;;;;;;;;;;3.47;100.00;96226.00;5083417;28;20129;-71
2023/12/09 08:26:01;;;;;;;;;;;;;;;3.51;100.00;96220.28;5083434;28;19961;-70
2023/12/09 08:28:27;;;;;;;;;;;;;;;3.55;100.00;96221.53;5082112;28;19958;-71
2023/12/09 08:30:53;;;;;;;;;;;;;;;3.61;100.00;96218.22;5082174;28;19985;-71
2023/12/09 08:33:19;;;;;;;;;;;;;;;3.66;100.00;96209.91;5082636;28;19960;-70
2023/12/09 08:35:45;;;;;;;;;;;;;;;3.66;100.00;96213.28;5083197;28;19959;-70
2023/12/09 08:38:10;;;;;;;;;;;;;;;3.71;100.00;96215.34;5083326;28;20020;-74
2023/12/09 08:40:36;;;;;;;;;;;;;;;3.72;100.00;96208.38;5084261;28;19971;-74
2023/12/09 08:43:02;;;;;;;;;;;;;;;3.71;100.00;96202.38;5085520;28;19952;-75
2023/12/09 08:45:31;;;;;;;;;;;;;;;3.73;100.00;96203.00;5086896;28;20257;-75
2023/12/09 08:47:57;;;;;;;;;;;;;;;3.80;100.00;96196.13;5086811;28;19956;-76
2023/12/09 08:50:23;;;;;;;;;;;;;;;3.88;100.00;96197.00;5085557;28;20157;-76
2023/12/09 08:52:49;;;;;;;;;;;;;;;3.93;100.00;96207.66;5085454;28;19950;-70
2023/12/09 08:55:17;;;;;;;;;;;;;;;3.96;100.00;96207.25;5086676;28;19967;-75
2023/12/09 08:57:42;;;;;;;;;;;;;;;3.96;100.00;96195.09;5086105;28;19977;-70
2023/12/09 09:00:08;;;;;;;;;;;;;;;3.96;100.00;96189.91;5086730;28;19966;-70
2023/12/09 09:02:34;;;;;;;;;;;;;;;3.96;100.00;96184.72;5086468;28;19955;-70
2023/12/09 09:05:00;;;;;;;;;;;;;;;4.00;100.00;96164.41;5086371;28;20240;-70
2023/12/09 09:07:26;;;;;;;;;;;;;;;4.09;100.00;96172.88;5085106;28;19964;-69
2023/12/09 09:09:52;;;;;;;;;;;;;;;4.15;100.00;96174.75;5086180;28;19988;-69
2023/12/09 09:12:18;;;;;;;;;;;;;;;4.20;100.00;96156.81;5086433;28;19963;-70
2023/12/09 09:14:43;;;;;;;;;;;;;;;4.23;100.00;96159.06;5086317;28;19954;-69
2023/12/09 09:17:09;;;;;;;;;;;;;;;4.26;100.00;96159.50;5086236;28;19957;-70
2023/12/09 09:19:35;;;;;;;;;;;;;;;4.29;100.00;96168.69;5086206;28;19961;-69
2023/12/09 09:22:02;;;;;;;;;;;;;;;4.33;100.00;96166.53;5086330;28;20241;-70
2023/12/09 09:24:28;;;;;;;;;;;;;;;4.35;100.00;96180.94;5084986;28;19976;-72
2023/12/09 09:26:54;;;;;;;;;;;;;;;4.39;100.00;96165.78;5084792;28;20024;-72
2023/12/09 09:29:20;;;;;;;;;;;;;;;4.46;100.00;96174.44;5086124;28;20296;-71
2023/12/09 09:31:46;;;;;;;;;;;;;;;4.47;100.00;96174.28;5084665;28;19961;-74
2023/12/09 09:34:11;;;;;;;;;;;;;;;4.51;100.00;96169.47;5085927;28;19956;-75
2023/12/09 09:36:37;;;;;;;;;;;;;;;4.56;100.00;96148.97;5086023;28;20139;-73
2023/12/09 09:39:04;;;;;;;;;;;;;;;4.62;100.00;96142.22;5085841;28;20293;-75
2023/12/09 09:41:39;;;;;;;;;;;;;;;4.63;100.00;96141.22;5085658;28;19954;-74
2023/12/09 09:44:11;;;;;;;;;;;;;;;4.66;100.00;96149.47;5084259;28;19959;-75
2023/12/09 09:46:38;;;;;;;;;;;;;;;4.63;100.00;96142.03;5085669;28;19949;-74
2023/12/09 09:49:04;;;;;;;;;;;;;;;4.59;100.00;96130.41;5084552;28;19956;-73
2023/12/09 09:51:31;;;;;;;;;;;;;;;4.59;100.00;96127.81;5083465;28;20283;-74
2023/12/09 09:54:05;;;;;;;;;;;;;;;4.60;100.00;96139.00;5084222;28;20012;-74
2023/12/09 09:56:31;;;;;;;;;;;;;;;4.62;100.00;96130.03;5085136;28;19964;-75
2023/12/09 09:58:57;;;;;;;;;;;;;;;4.70;100.00;96123.09;5085643;28;20242;-74
2023/12/09 10:01:25;;;;;;;;;;;;;;;4.82;100.00;96116.41;5085410;28;20015;-74
2023/12/09 10:03:51;;;;;;;;;;;;;;;4.96;100.00;96112.09;5085273;28;19963;-74
2023/12/09 10:06:18;;;;;;;;;;;;;;;5.04;100.00;96107.56;5084397;28;20018;-74
2023/12/09 10:08:44;;;;;;;;;;;;;;;5.12;100.00;96106.56;5085342;28;19962;-73
2023/12/09 10:11:10;;;;;;;;;;;;;;;5.18;100.00;96113.59;5085253;28;19965;-74
2023/12/09 10:13:36;;;;;;;;;;;;;;;5.23;100.00;96107.84;5084230;28;20102;-75
2023/12/09 10:16:02;;;;;;;;;;;;;;;5.27;100.00;96106.44;5085166;28;19973;-74
2023/12/09 10:18:29;;;;;;;;;;;;;;;5.31;100.00;96097.28;5084719;28;19967;-74
2023/12/09 10:20:55;;;;;;;;;;;;;;;5.36;100.00;96076.72;5085048;28;19951;-74
2023/12/09 10:23:22;;;;;;;;;;;;;;;5.38;100.00;96055.72;5085494;28;20001;-74
2023/12/09 10:25:48;;;;;;;;;;;;;;;5.38;100.00;96046.13;5084968;28;19986;-75
2023/12/09 10:28:14;;;;;;;;;;;;;;;5.35;100.00;96058.69;5083709;28;20140;-74
2023/12/09 10:30:41;;;;;;;;;;;;;;;5.29;100.00;96062.88;5084591;28;19961;-74
2023/12/09 10:33:08;;;;;;;;;;;;;;;5.28;100.00;96050.88;5085390;28;19964;-75
2023/12/09 10:35:34;;;;;;;;;;;;;;;5.30;100.00;96038.47;5083865;28;20153;-75
2023/12/09 10:38:02;;;;;;;;;;;;;;;5.31;100.00;96040.06;5084738;28;19962;-75
2023/12/09 10:40:27;;;;;;;;;;;;;;;5.33;100.00;96029.50;5084619;28;19953;-75
2023/12/09 10:42:55;;;;;;;;;;;;;;;5.34;100.00;96031.91;5084455;28;19949;-75
2023/12/09 10:45:21;;;;;;;;;;;;;;;5.34;100.00;96018.91;5084541;28;20125;-74
2023/12/09 10:47:48;;;;;;;;;;;;;;;5.38;100.00;96006.31;5084478;28;19960;-73
2023/12/09 10:50:13;;;;;;;;;;;;;;;5.38;100.00;96011.53;5084283;28;20263;-73
2023/12/09 10:52:39;;;;;;;;;;;;;;;5.38;100.00;96003.72;5082923;28;19968;-73
2023/12/09 10:55:05;;;;;;;;;;;;;;;5.38;100.00;96014.13;5084366;28;20110;-73
2023/12/09 10:57:33;;;;;;;;;;;;;;;5.38;100.00;96004.50;5083181;28;19962;-73
2023/12/09 11:00:00;;;;;;;;;;;;;;;5.38;100.00;96007.13;5084253;28;19952;-73
2023/12/09 11:02:26;;;;;;;;;;;;;;;5.42;100.00;96010.13;5084092;28;19957;-77
2023/12/09 11:04:52;;;;;;;;;;;;;;;5.42;100.00;95995.31;5083755;28;19956;-72
2023/12/09 11:07:18;;;;;;;;;;;;;;;5.44;100.00;95989.94;5066140;28;20055;-71
2023/12/09 11:09:45;;;;;;;;;;;;;;;5.46;100.00;95977.53;5083026;28;19972;-72
2023/12/09 11:12:22;;;;;;;;;;;;;;;5.47;100.00;95960.91;5082952;28;20193;-72
2023/12/09 11:14:47;;;;;;;;;;;;;;;5.49;100.00;95951.13;5082919;28;19964;-72
2023/12/09 11:17:32;;;;;;;;;;;;;;;5.47;100.00;95940.91;5084355;28;19966;-72
2023/12/09 11:20:03;;;;;;;;;;;;;;;5.47;100.00;95933.13;5082849;28;19959;-73
2023/12/09 11:22:28;;;;;;;;;;;;;;;5.45;100.00;95927.31;5082863;28;19963;-76
2023/12/09 11:24:54;;;;;;;;;;;;;;;5.42;100.00;95919.13;5084173;28;19954;-73
2023/12/09 11:27:20;;;;;;;;;;;;;;;5.40;100.00;95905.50;5084074;28;20274;-73
2023/12/09 11:29:46;;;;;;;;;;;;;;;5.38;100.00;95899.72;5083970;28;19958;-73
2023/12/09 11:32:12;;;;;;;;;;;;;;;5.35;100.00;95898.28;5084050;28;19954;-72
2023/12/09 11:34:39;;;;;;;;;;;;;;;5.34;100.00;95895.91;5083933;28;19940;-73
2023/12/09 11:37:08;;;;;;;;;;;;;;;5.35;100.00;95897.50;5084165;28;19965;-73
2023/12/09 11:39:34;;;;;;;;;;;;;;;5.33;100.00;95882.09;5084143;28;19953;-72
2023/12/09 11:42:00;;;;;;;;;;;;;;;5.31;100.00;95858.09;5083416;28;20004;-74
2023/12/09 11:44:27;;;;;;;;;;;;;;;5.32;100.00;95857.09;5083585;28;19966;-75
2023/12/09 11:46:53;;;;;;;;;;;;;;;5.31;100.00;95852.88;5083738;28;19960;-74
2023/12/09 11:49:20;;;;;;;;;;;;;;;5.32;100.00;95846.69;5083684;28;20288;-74
2023/12/09 11:51:46;;;;;;;;;;;;;;;5.36;100.00;95842.69;5083626;28;19970;-74
2023/12/09 11:54:12;;;;;;;;;;;;;;;5.40;100.00;95837.91;5082430;28;19967;-74
2023/12/09 11:56:38;;;;;;;;;;;;;;;5.45;100.00;95841.50;5082480;28;19956;-74
2023/12/09 11:59:05;;;;;;;;;;;;;;;5.52;100.00;95838.09;5083799;28;19957;-72
2023/12/09 12:01:31;;;;;;;;;;;;;;;5.56;100.00;95827.09;5083665;28;19951;-72
2023/12/09 12:03:57;;;;;;;;;;;;;;;5.57;100.00;95813.09;5066114;28;19960;-72
2023/12/09 12:06:24;;;;;;;;;;;;;;;5.57;100.00;95807.09;5065950;28;19956;-71
2023/12/09 12:08:50;;;;;;;;;;;;;;;5.57;100.00;95799.28;5083550;28;19967;-72
2023/12/09 12:11:17;;;;;;;;;;;;;;;5.58;100.00;95782.69;5082251;28;20272;-71
2023/12/09 12:13:43;;;;;;;;;;;;;;;5.59;100.00;95777.28;5082450;28;19955;-71
2023/12/09 12:16:09;;;;;;;;;;;;;;;5.61;100.00;95783.06;5085911;28;19965;-74
2023/12/09 12:18:35;;;;;;;;;;;;;;;5.66;100.00;95798.88;5087317;28;19967;-72
2023/12/09 12:21:01;;;;;;;;;;;;;;;5.71;100.00;95790.44;5087162;28;19959;-71
2023/12/09 12:23:27;;;;;;;;;;;;;;;5.78;100.00;95780.06;5087665;28;19993;-73
2023/12/09 12:25:54;;;;;;;;;;;;;;;5.87;100.00;95777.00;5087706;28;19999;-72
2023/12/09 12:28:20;;;;;;;;;;;;;;;5.96;100.00;95763.81;5086297;28;19960;-72
2023/12/09 12:30:49;;;;;;;;;;;;;;;6.02;100.00;95763.78;5087453;28;19972;-72
2023/12/09 12:33:15;;;;;;;;;;;;;;;6.07;100.00;95748.34;5087633;28;19956;-72
2023/12/09 12:35:41;;;;;;;;;;;;;;;6.12;100.00;95741.75;5086467;28;19961;-73
2023/12/09 12:38:07;;;;;;;;;;;;;;;6.13;100.00;95731.09;5086336;28;20006;-74
2023/12/09 12:40:33;;;;;;;;;;;;;;;6.13;100.00;95723.28;5087454;28;19959;-73
2023/12/09 12:43:01;;;;;;;;;;;;;;;6.15;100.00;95723.88;5086212;28;20010;-73